Veterans Administration, California
Current Conditions -  °F | °C
As of 9:51 PM on Thursday 30 Oct 2014 (Local Time) from KSMO Reporting Station
Clear Clear  
Wind Chill: 66°   Ceiling: Unl
Heat Index: 66°   Visibility: 10mi
Dew Point: 60°   Wind: 5mph
Humidity: 81%   Direction: 220°SW
Pressure: 29.96"   Gusts: NA
Location:  34.0636°N, 118.465°W
Report Text: KSMO 310451Z 22004KT 10SM CLR 19/16 A2996 RMK AO2 SLP144 T01890156 $
Loading
Personal Weather Stations






























Interactive Weather Map
Tropical Storm Tracking
New forecast layout! Learn more

10-Day Weather Forecast

Advertisements
Track Severe Weather on mobile